Terminal Aerodrome Forecast
Issued by NWS Flagstaff, AZ

Home | Current Version | Previous Version | Text Only | Print | Product List | Glossary On
Versions: 1 2 3 4 5 6 7 8 9 10 11 12 13 14 15 16 17 18 19 20 21 22 23 24 25
000
FTUS45 KFGZ 040200 AAA
TAFFLG
TAF AMD
KFLG 040217Z 0402/0424 VRB05KT P6SM FEW030 SCT060
     FM040500 VRB03KT P6SM SCT020 BKN030
      TEMPO 0405/0409 28007KT 5SM -SHSN BKN020
     FM041730 03010G15KT P6SM SCT035=

USA.gov is the U.S. government's official web portal to all federal, state and local government web resources and services.